Time;durP1;ratioP1;P1;durP2;ratioP2;P2;SDS_P1;SDS_P2;PMS_P1;PMS_P2;Temp;Humidity;BMP_temperature;BMP_pressure;BME280_temperature;BME280_humidity;BME280_pressure;Samples;Min_cycle;Max_cycle;Signal;HPM_P1;HPM_P2
2022/11/12 05:22:36;;;;;;;3.38;2.25;;;;;;;6.01;100.00;101836.28;5109598;27;20907;-68
2022/11/12 05:25:20;;;;;;;5.85;2.63;;;;;;;6.05;100.00;101838.59;5109555;28;20137;-67
2022/11/12 05:28:04;;;;;;;4.13;3.05;;;;;;;6.10;100.00;101840.94;5109652;28;20059;-68
2022/11/12 05:30:48;;;;;;;3.78;2.47;;;;;;;6.19;100.00;101842.94;5109572;28;20131;-67
2022/11/12 05:33:31;;;;;;;3.65;2.65;;;;;;;6.22;100.00;101842.75;5109959;28;20515;-68
2022/11/12 05:36:16;;;;;;;7.38;2.90;;;;;;;6.24;100.00;101844.31;5109257;28;20071;-68
2022/11/12 05:38:59;;;;;;;3.95;2.30;;;;;;;6.29;100.00;101851.09;5109587;28;20054;-68
2022/11/12 05:41:43;;;;;;;3.28;2.20;;;;;;;6.30;100.00;101839.56;5108996;28;20177;-68
2022/11/12 05:44:27;;;;;;;2.83;2.25;;;;;;;6.29;100.00;101840.50;5109132;28;20111;-68
2022/11/12 05:47:11;;;;;;;3.55;2.10;;;;;;;6.27;100.00;101848.56;5109326;28;20143;-67
2022/11/12 05:49:55;;;;;;;4.13;2.60;;;;;;;6.27;100.00;101855.66;5109008;28;20046;-68
2022/11/12 05:52:39;;;;;;;3.42;2.35;;;;;;;6.28;100.00;101852.91;5109073;28;20131;-68
2022/11/12 05:55:23;;;;;;;3.15;1.98;;;;;;;6.20;100.00;101865.81;5108895;28;20520;-68
2022/11/12 05:58:07;;;;;;;3.38;2.13;;;;;;;6.27;100.00;101858.31;5109017;28;20055;-67
2022/11/12 06:00:51;;;;;;;4.28;2.20;;;;;;;6.25;100.00;101867.19;5108692;28;20055;-67
2022/11/12 06:03:35;;;;;;;3.95;3.03;;;;;;;6.20;100.00;101863.19;5109159;28;20090;-67
2022/11/12 06:06:19;;;;;;;7.10;2.53;;;;;;;6.20;100.00;101877.25;5108770;28;20046;-68
2022/11/12 06:09:04;;;;;;;5.40;2.60;;;;;;;6.27;100.00;101874.19;5108806;28;20215;-68
2022/11/12 06:11:48;;;;;;;2.72;1.73;;;;;;;6.30;100.00;101876.59;5108639;28;20499;-68
2022/11/12 06:14:32;;;;;;;3.97;2.35;;;;;;;6.31;100.00;101870.34;5108829;28;20051;-67
2022/11/12 06:17:15;;;;;;;4.22;2.20;;;;;;;6.33;100.00;101873.75;5108513;28;20050;-68
2022/11/12 06:19:59;;;;;;;3.80;2.55;;;;;;;6.33;100.00;101873.75;5108286;28;20142;-68
2022/11/12 06:22:43;;;;;;;3.80;2.50;;;;;;;6.28;100.00;101884.66;5108465;28;20096;-68
2022/11/12 06:25:27;;;;;;;2.40;2.00;;;;;;;6.33;100.00;101879.06;5108309;28;20051;-67
2022/11/12 06:28:11;;;;;;;2.92;1.92;;;;;;;6.27;100.00;101888.25;5108368;28;20630;-67
2022/11/12 06:30:55;;;;;;;3.22;2.40;;;;;;;6.30;100.00;101885.41;5108147;28;20051;-66
2022/11/12 06:33:39;;;;;;;5.75;2.75;;;;;;;6.33;100.00;101884.34;5096862;28;20042;-57
2022/11/12 06:36:24;;;;;;;3.28;2.45;;;;;;;6.34;100.00;101880.75;5094686;28;20094;-61
2022/11/12 06:39:10;;;;;;;3.30;2.17;;;;;;;6.31;100.00;101891.53;5095023;28;20488;-61
2022/11/12 06:41:54;;;;;;;4.05;2.58;;;;;;;6.28;100.00;101889.94;5094256;28;20055;-62
2022/11/12 06:44:37;;;;;;;2.92;2.33;;;;;;;6.29;100.00;101894.28;5094927;28;20047;-67
2022/11/12 06:47:21;;;;;;;3.53;2.50;;;;;;;6.30;100.00;101895.97;5094805;28;20087;-66
2022/11/12 06:50:05;;;;;;;3.40;2.08;;;;;;;6.19;100.00;101895.84;5094668;28;20101;-67
2022/11/12 06:52:49;;;;;;;2.60;2.05;;;;;;;6.18;100.00;101896.81;5094494;28;20424;-66
2022/11/12 06:55:33;;;;;;;2.42;2.00;;;;;;;6.24;100.00;101899.03;5093542;28;20434;-66
2022/11/12 06:58:17;;;;;;;3.60;2.47;;;;;;;6.30;100.00;101901.28;5094334;28;20086;-66
2022/11/12 07:01:10;;;;;;;3.80;2.17;;;;;;;6.29;100.00;101898.75;5094188;28;20093;-66
2022/11/12 07:03:54;;;;;;;4.30;2.20;;;;;;;6.31;100.00;101895.03;5094207;28;20047;-66
2022/11/12 07:06:37;;;;;;;2.72;2.35;;;;;;;6.34;100.00;101896.63;5094181;28;20062;-66
2022/11/12 07:09:21;;;;;;;2.22;1.98;;;;;;;6.34;100.00;101893.97;5094211;28;20514;-66
2022/11/12 07:12:05;;;;;;;4.03;2.45;;;;;;;6.35;100.00;101883.28;5094088;28;20125;-67
2022/11/12 07:14:51;;;;;;;3.40;2.47;;;;;;;6.33;100.00;101882.56;5094118;28;20667;-67
2022/11/12 07:17:35;;;;;;;3.10;2.10;;;;;;;6.36;100.00;101884.13;5093983;28;20089;-67
2022/11/12 07:20:19;;;;;;;3.10;2.15;;;;;;;6.33;100.00;101874.59;5092375;28;20170;-66
2022/11/12 07:23:03;;;;;;;2.80;2.15;;;;;;;6.31;100.00;101881.78;5094175;28;20055;-66
2022/11/12 07:25:55;;;;;;;4.15;2.22;;;;;;;6.33;100.00;101884.34;5093113;28;20050;-67
2022/11/12 07:28:39;;;;;;;2.75;2.22;;;;;;;6.34;100.00;101886.03;5093687;28;20047;-69
2022/11/12 07:31:24;;;;;;;4.78;2.55;;;;;;;6.25;100.00;101877.75;5093643;28;20047;-68
2022/11/12 07:34:08;;;;;;;3.38;2.47;;;;;;;6.32;100.00;101875.53;5093800;28;20105;-69
2022/11/12 07:36:52;;;;;;;3.67;2.50;;;;;;;6.33;100.00;101876.41;5093550;28;20050;-68
2022/11/12 07:39:36;;;;;;;4.05;2.22;;;;;;;6.33;100.00;101868.47;5093477;28;20059;-68
2022/11/12 07:42:20;;;;;;;3.78;2.50;;;;;;;6.32;100.00;101869.41;5093174;28;20533;-68
2022/11/12 07:45:04;;;;;;;3.63;2.30;;;;;;;6.21;100.00;101872.81;5092766;28;20046;-69
2022/11/12 07:47:48;;;;;;;3.78;2.28;;;;;;;6.28;100.00;101874.06;5093082;28;20055;-68
2022/11/12 07:50:32;;;;;;;3.35;2.60;;;;;;;6.25;100.00;101868.97;5091901;28;20109;-68
2022/11/12 07:53:16;;;;;;;3.22;2.60;;;;;;;6.30;100.00;101874.81;5092779;28;20389;-68
2022/11/12 07:56:01;;;;;;;3.05;2.10;;;;;;;6.19;100.00;101872.03;5092452;28;20434;-68
2022/11/12 07:58:46;;;;;;;3.65;2.53;;;;;;;6.27;100.00;101863.59;5091632;28;20055;-68
2022/11/12 08:01:38;;;;;;;7.35;2.58;;;;;;;6.09;100.00;101866.56;5092333;28;20166;-68
2022/11/12 08:04:22;;;;;;;2.90;2.20;;;;;;;6.07;100.00;101865.81;5093120;28;20104;-68
2022/11/12 08:07:06;;;;;;;3.10;1.95;;;;;;;6.12;100.00;101868.13;5093349;28;20097;-68
2022/11/12 08:09:50;;;;;;;3.33;2.60;;;;;;;5.93;100.00;101868.53;5091913;28;20059;-68
2022/11/12 08:12:34;;;;;;;3.45;2.30;;;;;;;6.01;100.00;101884.75;5093087;28;20050;-68
2022/11/12 08:15:18;;;;;;;3.42;2.80;;;;;;;5.98;100.00;101875.22;5093071;28;20085;-68
2022/11/12 08:18:03;;;;;;;3.33;2.13;;;;;;;6.08;100.00;101880.75;5092836;28;20055;-68
2022/11/12 08:20:47;;;;;;;4.13;2.72;;;;;;;6.14;100.00;101882.13;5092530;28;20093;-68
2022/11/12 08:23:31;;;;;;;4.40;2.55;;;;;;;6.16;100.00;101878.41;5092900;28;20090;-68
2022/11/12 08:26:17;;;;;;;3.90;2.28;;;;;;;6.17;100.00;101880.09;5092538;28;20101;-68
2022/11/12 08:29:02;;;;;;;2.50;2.15;;;;;;;6.08;100.00;101886.03;5092493;28;20051;-69
2022/11/12 08:31:46;;;;;;;2.25;2.00;;;;;;;6.12;100.00;101879.56;5092495;28;20039;-68
2022/11/12 08:34:30;;;;;;;2.28;1.75;;;;;;;6.04;100.00;101884.53;5092730;28;20096;-68
2022/11/12 08:37:14;;;;;;;3.15;2.72;;;;;;;6.05;100.00;101880.94;5092595;28;20051;-68
2022/11/12 08:39:58;;;;;;;3.15;2.30;;;;;;;6.04;100.00;101887.19;5092607;28;20482;-68
2022/11/12 08:42:42;;;;;;;3.40;2.67;;;;;;;6.10;100.00;101884.13;5092350;28;20589;-68
2022/11/12 08:45:27;;;;;;;3.00;2.45;;;;;;;5.97;100.00;101892.03;5092265;28;20086;-68
2022/11/12 08:48:13;;;;;;;3.67;2.63;;;;;;;6.05;100.00;101895.97;5092288;28;20545;-68
2022/11/12 08:50:59;;;;;;;4.72;2.10;;;;;;;5.82;100.00;101905.41;5092157;28;20054;-68
2022/11/12 08:53:43;;;;;;;4.30;2.92;;;;;;;5.88;100.00;101891.78;5092427;28;20050;-68
2022/11/12 08:56:27;;;;;;;4.43;2.83;;;;;;;5.91;100.00;101894.25;5092092;28;20511;-68
2022/11/12 08:59:11;;;;;;;3.70;2.35;;;;;;;5.90;100.00;101898.66;5092262;28;20548;-68
2022/11/12 09:01:55;;;;;;;3.33;2.25;;;;;;;5.97;100.00;101894.69;5091781;28;20051;-68
2022/11/12 09:04:39;;;;;;;4.63;3.20;;;;;;;5.98;100.00;101891.06;5092266;28;20055;-68
2022/11/12 09:07:23;;;;;;;4.10;2.90;;;;;;;5.99;100.00;101902.50;5092108;28;20511;-68
2022/11/12 09:10:07;;;;;;;4.38;3.30;;;;;;;5.96;100.00;101900.09;5092173;28;20051;-68
2022/11/12 09:12:51;;;;;;;3.50;2.33;;;;;;;5.95;100.00;101901.03;5092017;28;20147;-68
2022/11/12 09:15:36;;;;;;;5.78;2.80;;;;;;;6.05;100.00;101902.09;5092198;28;20051;-68
2022/11/12 09:18:20;;;;;;;3.40;2.78;;;;;;;6.13;100.00;101906.84;5092277;28;20218;-68
2022/11/12 09:21:07;;;;;;;4.22;2.70;;;;;;;6.12;100.00;101891.94;5091670;28;20063;-68
2022/11/12 09:23:51;;;;;;;2.88;2.63;;;;;;;6.16;100.00;101896.94;5091963;28;20100;-67
2022/11/12 09:26:35;;;;;;;5.07;3.00;;;;;;;6.29;100.00;101896.09;5090653;28;20071;-68
2022/11/12 09:29:19;;;;;;;5.43;3.10;;;;;;;6.15;100.00;101908.47;5092021;28;20130;-68
2022/11/12 09:32:03;;;;;;;4.13;2.72;;;;;;;6.14;100.00;101909.44;5092068;28;20100;-68
2022/11/12 09:34:47;;;;;;;4.78;3.20;;;;;;;6.29;100.00;101898.75;5091739;28;20126;-68
2022/11/12 09:37:31;;;;;;;6.85;3.63;;;;;;;6.21;100.00;101899.28;5091925;28;20168;-68
2022/11/12 09:40:17;;;;;;;5.28;3.03;;;;;;;6.34;100.00;101907.22;5091421;28;20051;-67
2022/11/12 09:43:11;;;;;;;4.50;2.90;;;;;;;6.39;100.00;101910.38;5091743;28;20042;-68
2022/11/12 09:46:00;;;;;;;5.18;3.20;;;;;;;6.37;100.00;101901.69;5091616;28;20085;-68
2022/11/12 09:48:51;;;;;;;5.47;3.38;;;;;;;6.45;100.00;101899.34;5091698;28;20404;-68
2022/11/12 09:51:41;;;;;;;5.43;3.45;;;;;;;6.50;100.00;101913.13;5091387;28;20108;-67
2022/11/12 09:54:29;;;;;;;6.25;3.33;;;;;;;6.46;100.00;101912.50;5091738;28;20082;-68
2022/11/12 09:57:13;;;;;;;5.50;3.58;;;;;;;6.57;100.00;101916.19;5091594;28;20055;-68
2022/11/12 09:59:57;;;;;;;4.53;3.10;;;;;;;6.54;100.00;101906.69;5091468;28;20055;-68
2022/11/12 10:03:06;;;;;;;5.10;3.42;;;;;;;6.50;100.00;101906.03;5091316;28;20074;-67
2022/11/12 10:05:57;;;;;;;5.63;4.10;;;;;;;6.45;100.00;101904.66;5091704;28;20561;-67
2022/11/12 10:09:03;;;;;;;6.22;3.50;;;;;;;6.38;100.00;101901.59;5094011;28;20051;-67
2022/11/12 10:18:46;;;;;;;4.05;3.00;;;;;;;6.39;100.00;101899.78;5094965;28;20039;-67
2022/11/12 10:21:48;;;;;;;6.70;3.95;;;;;;;6.33;100.00;101893.13;5094539;28;20104;-67
2022/11/12 10:24:35;;;;;;;7.07;3.88;;;;;;;6.32;100.00;101890.56;5094892;28;20066;-67
2022/11/12 10:27:25;;;;;;;10.18;3.63;;;;;;;6.43;100.00;101890.69;5094784;28;20135;-67
2022/11/12 10:30:18;;;;;;;5.93;3.15;;;;;;;6.48;100.00;101888.56;5094835;28;20051;-67
2022/11/12 10:33:02;;;;;;;8.02;3.90;;;;;;;6.44;100.00;101885.28;5094986;28;20051;-67
2022/11/12 10:35:45;;;;;;;5.88;3.72;;;;;;;6.52;100.00;101885.63;5094523;28;20562;-67
2022/11/12 10:38:32;;;;;;;7.15;4.13;;;;;;;6.48;100.00;101878.81;5094798;28;20093;-67
2022/11/12 10:41:25;;;;;;;10.85;5.82;;;;;;;6.49;100.00;101877.03;5094268;28;20055;-67
2022/11/12 10:44:16;;;;;;;9.60;5.40;;;;;;;6.55;100.00;101881.03;5094653;28;20474;-67
2022/11/12 10:47:25;;;;;;;10.45;5.68;;;;;;;6.56;100.00;101886.22;5094441;28;20137;-67
2022/11/12 10:50:21;;;;;;;9.23;4.95;;;;;;;6.67;100.00;101888.97;5094338;28;20093;-67
2022/11/12 10:53:09;;;;;;;13.85;5.97;;;;;;;6.70;100.00;101891.38;5094613;28;20058;-67
2022/11/12 10:55:59;;;;;;;9.93;5.35;;;;;;;6.60;100.00;101887.72;5094594;28;20188;-67
2022/11/12 10:58:43;;;;;;;9.88;5.03;;;;;;;6.64;100.00;101883.88;5094488;28;20051;-66
2022/11/12 11:01:26;;;;;;;9.90;5.50;;;;;;;6.73;100.00;101885.91;5094386;28;20101;-68
2022/11/12 11:04:19;;;;;;;10.18;5.53;;;;;;;6.81;100.00;101885.34;5094271;28;20164;-67
2022/11/12 11:07:24;;;;;;;13.20;6.53;;;;;;;6.74;100.00;101868.19;5094020;28;20093;-67
2022/11/12 11:10:26;;;;;;;9.00;5.28;;;;;;;6.72;100.00;101862.19;5092900;28;20050;-67
2022/11/12 11:13:19;;;;;;;7.95;4.75;;;;;;;6.78;100.00;101851.13;5093944;28;20089;-67
2022/11/12 11:16:06;;;;;;;9.90;5.43;;;;;;;6.75;100.00;101860.13;5093937;28;20086;-67
2022/11/12 11:19:01;;;;;;;12.18;6.13;;;;;;;6.86;100.00;101853.25;5093826;28;20074;-67
2022/11/12 11:22:02;;;;;;;10.10;5.78;;;;;;;6.88;100.00;101852.16;5093359;28;20131;-67
2022/11/12 11:25:07;;;;;;;11.20;6.05;;;;;;;6.93;100.00;101855.34;5093839;28;20435;-67
2022/11/12 11:28:06;;;;;;;10.82;5.93;;;;;;;6.84;100.00;101852.47;5093723;28;20047;-67
2022/11/12 11:31:05;;;;;;;10.60;5.60;;;;;;;6.92;100.00;101852.81;5093421;28;20057;-67
2022/11/12 11:34:12;;;;;;;9.18;5.63;;;;;;;6.83;100.00;101848.16;5094268;28;20046;-66
2022/11/12 11:37:22;;;;;;;10.88;6.00;;;;;;;6.93;100.00;101846.53;5093328;28;20158;-66
2022/11/12 11:40:22;;;;;;;9.80;5.32;;;;;;;6.88;100.00;101846.03;5093354;28;20131;-66
2022/11/12 11:43:36;;;;;;;9.68;6.13;;;;;;;6.88;100.00;101846.03;5093486;28;20075;-66
2022/11/12 11:46:39;;;;;;;12.68;6.35;;;;;;;6.96;100.00;101838.34;5093300;28;20078;-66
2022/11/12 11:49:41;;;;;;;11.07;6.57;;;;;;;6.94;100.00;101833.19;5093373;28;20048;-66
2022/11/12 11:52:44;;;;;;;13.02;6.70;;;;;;;7.01;100.00;101839.72;5093049;28;20043;-61
2022/11/12 11:55:37;;;;;;;9.93;5.90;;;;;;;7.08;100.00;101838.31;5093156;28;20173;-58
2022/11/12 11:58:39;;;;;;;12.80;6.57;;;;;;;7.07;100.00;101827.84;5092069;28;20043;-63
2022/11/12 12:01:34;;;;;;;12.57;6.45;;;;;;;7.13;100.00;101827.38;5084787;28;20083;-65
2022/11/12 12:04:23;;;;;;;10.88;6.53;;;;;;;7.10;100.00;101829.41;5086504;28;20046;-65
2022/11/12 12:07:47;;;;;;;15.10;7.75;;;;;;;7.13;100.00;101835.34;5085169;28;20490;-65
2022/11/12 12:10:52;;;;;;;10.52;6.47;;;;;;;7.17;100.00;101830.63;5092030;28;20054;-65
2022/11/12 12:14:04;;;;;;;12.43;5.95;;;;;;;7.19;100.00;101815.50;5091768;28;20042;-65
2022/11/12 12:17:02;;;;;;;17.70;7.57;;;;;;;7.04;100.00;101814.78;5092068;28;20051;-65
2022/11/12 12:20:25;;;;;;;14.23;7.68;;;;;;;7.05;100.00;101814.72;5092342;28;20353;-65
2022/11/12 12:23:19;;;;;;;9.30;5.97;;;;;;;7.12;100.00;101814.25;5092503;28;20078;-65
2022/11/12 12:26:12;;;;;;;10.90;5.95;;;;;;;7.11;100.00;101815.19;5092380;28;20131;-65
2022/11/12 12:29:12;;;;;;;9.68;6.13;;;;;;;6.88;100.00;101808.94;5092050;28;20509;-65
2022/11/12 12:32:13;;;;;;;10.75;5.63;;;;;;;7.01;100.00;101807.09;5079507;28;20042;-65
2022/11/12 12:35:05;;;;;;;16.23;6.32;;;;;;;7.05;100.00;101797.97;5080203;28;20090;-64
2022/11/12 12:38:11;;;;;;;10.60;5.65;;;;;;;7.01;100.00;101801.78;5087501;28;20401;-65
2022/11/12 12:41:10;;;;;;;7.85;5.03;;;;;;;7.00;100.00;101800.94;5091344;28;20140;-64
2022/11/12 12:44:01;;;;;;;7.30;4.35;;;;;;;7.08;100.00;101787.97;5092321;28;20108;-65
2022/11/12 12:46:57;;;;;;;8.57;5.45;;;;;;;7.11;100.00;101786.91;5090700;28;20047;-66
2022/11/12 12:49:43;;;;;;;9.18;5.35;;;;;;;7.05;100.00;101782.91;5090666;28;20408;-64
2022/11/12 12:52:27;;;;;;;7.18;5.05;;;;;;;7.06;100.00;101789.06;5091620;28;20105;-65
2022/11/12 12:55:34;;;;;;;7.53;4.63;;;;;;;7.05;100.00;101782.91;5091460;28;20158;-65
2022/11/12 12:58:26;;;;;;;10.60;5.80;;;;;;;7.10;100.00;101773.75;5091940;28;20047;-65
2022/11/12 13:01:30;;;;;;;10.20;5.03;;;;;;;6.89;100.00;101757.63;5083108;28;20071;-64
2022/11/12 13:04:14;;;;;;;10.77;5.90;;;;;;;6.83;100.00;101755.44;5071335;28;20105;-62
2022/11/12 13:06:58;;;;;;;9.63;5.22;;;;;;;6.90;100.00;101754.03;5071199;28;20055;-68
2022/11/12 13:09:42;;;;;;;12.65;5.43;;;;;;;6.92;100.00;101757.44;5071125;28;20051;-65
2022/11/12 13:13:00;;;;;;;8.32;5.00;;;;;;;6.95;100.00;101758.03;5071181;28;20052;-65
2022/11/12 13:15:52;;;;;;;8.52;4.75;;;;;;;6.99;100.00;101756.03;5071277;28;20051;-65
2022/11/12 13:18:36;;;;;;;10.52;5.05;;;;;;;7.01;100.00;101760.22;5071252;28;20086;-65
2022/11/12 13:21:20;;;;;;;10.55;5.68;;;;;;;7.03;100.00;101757.47;5070663;28;20080;-65
2022/11/12 13:24:11;;;;;;;10.77;5.70;;;;;;;6.93;100.00;101745.88;5071710;28;20094;-64
2022/11/12 13:26:59;;;;;;;7.95;4.18;;;;;;;6.93;100.00;101740.56;5077475;28;20096;-65
2022/11/12 13:29:45;;;;;;;11.65;5.50;;;;;;;6.84;100.00;101742.06;5091714;28;20324;-64
2022/11/12 13:32:49;;;;;;;9.45;4.95;;;;;;;6.92;100.00;101744.19;5072659;28;20047;-64
2022/11/12 13:35:38;;;;;;;8.63;5.30;;;;;;;6.98;100.00;101747.22;5068862;28;20058;-65
2022/11/12 13:38:22;;;;;;;7.55;5.05;;;;;;;6.92;100.00;101744.19;5070274;28;20117;-64
2022/11/12 13:41:09;;;;;;;6.40;4.63;;;;;;;6.90;100.00;101744.28;5070606;28;20093;-62
2022/11/12 13:43:55;;;;;;;8.95;4.70;;;;;;;6.96;100.00;101743.81;5074297;28;20047;-64
2022/11/12 13:46:39;;;;;;;9.90;5.90;;;;;;;6.92;100.00;101745.03;5075289;28;20056;-63
2022/11/12 13:49:23;;;;;;;10.50;6.00;;;;;;;6.77;100.00;101736.38;5075294;28;20087;-63
2022/11/12 13:52:07;;;;;;;7.32;4.63;;;;;;;6.77;100.00;101739.03;5074334;28;20504;-63
2022/11/12 13:55:05;;;;;;;10.60;6.97;;;;;;;6.82;100.00;101736.06;5075263;28;20070;-63
2022/11/12 13:57:54;;;;;;;11.85;5.90;;;;;;;6.78;100.00;101735.44;5094498;28;20082;-63
2022/11/12 14:00:39;;;;;;;9.98;5.72;;;;;;;6.91;100.00;101738.03;5091125;28;20052;-63
2022/11/12 14:03:27;;;;;;;9.23;6.00;;;;;;;6.97;100.00;101739.38;5074909;28;20417;-63
2022/11/12 14:06:34;;;;;;;10.18;5.68;;;;;;;7.01;100.00;101736.38;5073976;28;20059;-63
2022/11/12 14:09:52;;;;;;;6.15;4.47;;;;;;;7.04;100.00;101732.66;5074641;28;20047;-63
2022/11/12 14:12:54;;;;;;;8.55;4.97;;;;;;;7.07;100.00;101737.75;5073811;28;20401;-64
2022/11/12 14:15:59;;;;;;;6.47;3.83;;;;;;;6.99;100.00;101734.81;5074547;28;20082;-64
2022/11/12 14:19:37;;;;;;;7.45;4.70;;;;;;;6.95;100.00;101734.19;5073643;28;20050;-64
2022/11/12 14:22:21;;;;;;;9.57;5.18;;;;;;;6.97;100.00;101728.78;5072178;28;20107;-64
2022/11/12 14:25:18;;;;;;;8.50;5.32;;;;;;;7.00;100.00;101732.06;5072626;28;20052;-64
2022/11/12 14:28:02;;;;;;;7.80;4.88;;;;;;;6.94;100.00;101723.72;5074234;28;20562;-64
2022/11/12 14:30:46;;;;;;;8.30;4.38;;;;;;;6.99;100.00;101725.06;5074276;28;20097;-64
2022/11/12 14:33:31;;;;;;;7.38;4.47;;;;;;;7.06;100.00;101718.34;5074435;28;20276;-63
2022/11/12 14:36:17;;;;;;;6.07;4.20;;;;;;;7.05;100.00;101724.63;5074440;28;20404;-64
2022/11/12 14:39:01;;;;;;;7.18;4.65;;;;;;;7.08;100.00;101713.78;5074266;28;20047;-64
2022/11/12 14:41:48;;;;;;;7.35;5.10;;;;;;;7.14;100.00;101719.56;5074226;28;20043;-64
2022/11/12 14:44:34;;;;;;;6.70;4.78;;;;;;;7.09;100.00;101719.91;5074543;28;20527;-64
2022/11/12 14:47:18;;;;;;;10.95;6.07;;;;;;;7.16;100.00;101718.50;5074207;28;20109;-64
2022/11/12 14:50:03;;;;;;;8.00;5.88;;;;;;;7.08;100.00;101713.78;5074079;28;20055;-64
2022/11/12 14:52:51;;;;;;;9.02;5.32;;;;;;;7.05;100.00;101707.88;5074495;28;20098;-63
2022/11/12 14:55:37;;;;;;;6.88;4.57;;;;;;;7.12;100.00;101714.41;5074200;28;20098;-64
2022/11/12 14:58:22;;;;;;;10.20;4.72;;;;;;;7.12;100.00;101711.75;5074401;28;20145;-64
2022/11/12 15:01:29;;;;;;;8.23;5.15;;;;;;;7.15;100.00;101705.34;5073651;28;20566;-64
2022/11/12 15:04:23;;;;;;;7.25;4.72;;;;;;;7.07;100.00;101709.44;5073019;28;20043;-65
2022/11/12 15:07:23;;;;;;;9.23;4.68;;;;;;;7.01;100.00;101706.41;5083828;28;20519;-65
2022/11/12 15:10:31;;;;;;;7.47;4.55;;;;;;;7.04;100.00;101700.84;5093048;28;20105;-64
2022/11/12 15:13:21;;;;;;;8.00;5.20;;;;;;;6.97;100.00;101694.31;5094352;28;20035;-65
2022/11/12 15:16:08;;;;;;;10.25;5.60;;;;;;;7.00;100.00;101697.59;5093976;28;20047;-65
2022/11/12 15:19:08;;;;;;;8.13;5.40;;;;;;;6.87;100.00;101688.88;5094078;28;20070;-65
2022/11/12 15:21:57;;;;;;;8.70;5.18;;;;;;;6.92;100.00;101684.09;5093505;28;20408;-65
2022/11/12 15:24:43;;;;;;;8.60;5.38;;;;;;;6.85;100.00;101677.56;5093175;28;20062;-65
2022/11/12 15:27:40;;;;;;;10.23;5.45;;;;;;;6.93;100.00;101677.00;5093898;28;20532;-65
2022/11/12 15:30:27;;;;;;;10.27;5.93;;;;;;;6.94;100.00;101676.03;5093556;28;20101;-65
2022/11/12 15:33:11;;;;;;;9.27;5.40;;;;;;;6.96;100.00;101676.75;5093046;28;20173;-65
2022/11/12 15:35:58;;;;;;;10.55;5.82;;;;;;;6.98;100.00;101673.03;5094475;28;20046;-65
2022/11/12 15:38:51;;;;;;;7.75;5.28;;;;;;;6.88;100.00;101665.88;5093927;28;20554;-65
2022/11/12 15:41:35;;;;;;;9.27;5.60;;;;;;;6.94;100.00;101662.78;5092193;28;20093;-65
2022/11/12 15:44:19;;;;;;;9.15;5.65;;;;;;;6.91;100.00;101658.56;5093505;28;20070;-66
2022/11/12 15:47:04;;;;;;;10.88;6.18;;;;;;;6.91;100.00;101649.75;5093364;28;20051;-66
2022/11/12 15:49:54;;;;;;;9.73;5.22;;;;;;;6.94;100.00;101653.03;5093125;28;20101;-67
2022/11/12 15:52:42;;;;;;;8.93;5.80;;;;;;;6.97;100.00;101654.59;5092435;28;20085;-67
2022/11/12 15:55:25;;;;;;;11.27;6.60;;;;;;;6.93;100.00;101645.22;5092059;28;20051;-66
2022/11/12 15:58:19;;;;;;;10.30;5.97;;;;;;;6.92;100.00;101640.88;5093121;28;20051;-66
2022/11/12 16:01:04;;;;;;;9.68;6.57;;;;;;;6.95;100.00;101640.63;5092838;28;20047;-66
2022/11/12 16:03:48;;;;;;;9.15;5.72;;;;;;;6.97;100.00;101639.53;5093166;28;20116;-66
2022/11/12 16:06:33;;;;;;;10.27;5.80;;;;;;;6.98;100.00;101640.41;5092454;28;20574;-64
2022/11/12 16:09:17;;;;;;;11.48;6.65;;;;;;;7.01;100.00;101642.81;5093154;28;20054;-64
2022/11/12 16:12:01;;;;;;;8.45;6.00;;;;;;;6.96;100.00;101639.66;5092626;28;20054;-64
2022/11/12 16:14:45;;;;;;;10.40;6.28;;;;;;;6.98;100.00;101640.41;5092780;28;20507;-64
2022/11/12 16:17:29;;;;;;;11.88;6.07;;;;;;;7.02;100.00;101633.91;5092702;28;20058;-64
2022/11/12 16:20:25;;;;;;;10.90;6.95;;;;;;;7.01;100.00;101638.34;5091204;28;20432;-64
2022/11/12 16:23:09;;;;;;;10.55;6.22;;;;;;;7.02;100.00;101636.56;5092694;28;20055;-64
2022/11/12 16:25:53;;;;;;;12.05;7.18;;;;;;;7.04;100.00;101631.97;5092642;28;20466;-64
2022/11/12 16:28:38;;;;;;;11.88;6.05;;;;;;;7.02;100.00;101623.31;5092641;28;20113;-64
2022/11/12 16:31:23;;;;;;;11.88;6.78;;;;;;;7.00;100.00;101622.59;5092356;28;20053;-64
2022/11/12 16:34:07;;;;;;;10.35;5.95;;;;;;;7.00;100.00;101617.28;5092756;28;20561;-64
2022/11/12 16:36:51;;;;;;;9.75;5.70;;;;;;;6.99;100.00;101629.69;5092658;28;20093;-64
2022/11/12 16:39:35;;;;;;;8.50;5.22;;;;;;;7.01;100.00;101624.25;5092381;28;20054;-68
2022/11/12 16:42:19;;;;;;;9.73;6.50;;;;;;;7.01;100.00;101619.81;5091973;28;20113;-68
2022/11/12 16:45:03;;;;;;;13.55;7.38;;;;;;;7.06;100.00;101630.91;5092013;28;20377;-68
2022/11/12 16:47:55;;;;;;;11.25;7.07;;;;;;;7.08;100.00;101617.53;5092148;28;20055;-71
2022/11/12 16:50:39;;;;;;;7.75;5.45;;;;;;;7.02;100.00;101620.66;5091770;28;20101;-71
2022/11/12 16:53:23;;;;;;;9.95;6.13;;;;;;;7.07;100.00;101615.84;5092345;28;20059;-72
2022/11/12 16:56:33;;;;;;;9.45;6.20;;;;;;;7.02;100.00;101604.75;5091996;28;20047;-70
2022/11/12 16:59:17;;;;;;;9.60;6.05;;;;;;;7.08;100.00;101609.59;5091924;28;20184;-69
2022/11/12 17:02:01;;;;;;;9.60;5.97;;;;;;;7.09;100.00;101605.97;5091778;28;20096;-69
2022/11/12 17:04:45;;;;;;;11.13;7.25;;;;;;;7.11;100.00;101611.16;5092035;28;20091;-72
2022/11/12 17:07:29;;;;;;;18.48;10.18;;;;;;;7.10;100.00;101605.00;5091900;28;20097;-69
2022/11/12 17:10:14;;;;;;;15.77;10.32;;;;;;;7.09;100.00;101600.66;5091625;28;20051;-69
2022/11/12 17:12:58;;;;;;;25.02;12.43;;;;;;;7.11;100.00;101612.03;5090902;28;20520;-68
2022/11/12 17:15:42;;;;;;;15.85;8.13;;;;;;;7.11;100.00;101604.06;5091837;28;20055;-68
2022/11/12 17:18:26;;;;;;;12.75;7.38;;;;;;;7.14;100.00;101600.31;5092186;28;20097;-69
2022/11/12 17:21:16;;;;;;;12.02;6.15;;;;;;;7.11;100.00;101601.41;5090300;28;20105;-68
2022/11/12 17:24:00;;;;;;;12.82;6.97;;;;;;;7.18;100.00;101597.34;5091821;28;20047;-67
2022/11/12 17:26:45;;;;;;;13.27;8.02;;;;;;;7.16;100.00;101593.94;5091995;28;20515;-71
2022/11/12 17:29:31;;;;;;;20.65;10.15;;;;;;;7.14;100.00;101595.88;5091917;28;20058;-69
2022/11/12 17:32:15;;;;;;;19.13;9.68;;;;;;;7.18;100.00;101596.50;5092308;28;20089;-72
2022/11/12 17:34:59;;;;;;;16.80;9.02;;;;;;;7.20;100.00;101598.03;5090915;28;20405;-71
2022/11/12 17:37:43;;;;;;;16.42;8.88;;;;;;;7.21;100.00;101591.78;5091708;28;20131;-71
2022/11/12 17:40:27;;;;;;;16.08;9.00;;;;;;;7.21;100.00;101591.78;5091550;28;20440;-70
2022/11/12 17:43:11;;;;;;;17.80;9.32;;;;;;;7.26;100.00;101578.19;5091847;28;20130;-71
2022/11/12 17:45:55;;;;;;;13.38;7.72;;;;;;;7.23;100.00;101573.09;5091649;28;20054;-70
2022/11/12 17:48:39;;;;;;;14.32;7.60;;;;;;;7.24;100.00;101570.34;5091666;28;20055;-70
2022/11/12 17:51:26;;;;;;;11.30;6.43;;;;;;;7.20;100.00;101576.84;5091385;28;20046;-70
2022/11/12 17:54:10;;;;;;;12.65;7.53;;;;;;;7.25;100.00;101577.34;5091687;28;20104;-71
2022/11/12 17:56:54;;;;;;;15.90;8.10;;;;;;;7.27;100.00;101579.88;5091608;28;20043;-70
2022/11/12 17:59:38;;;;;;;14.77;7.88;;;;;;;7.27;100.00;101577.22;5091784;28;20680;-70
2022/11/12 18:02:22;;;;;;;17.15;8.48;;;;;;;7.30;100.00;101577.84;5091142;28;20055;-70
2022/11/12 18:05:06;;;;;;;16.33;8.13;;;;;;;7.33;100.00;101568.78;5091598;28;20047;-70
2022/11/12 18:07:50;;;;;;;12.50;8.27;;;;;;;7.32;100.00;101567.94;5091708;28;20051;-70
2022/11/12 18:10:35;;;;;;;14.55;7.82;;;;;;;7.30;100.00;101569.88;5091056;28;20097;-70
2022/11/12 18:13:19;;;;;;;15.13;8.50;;;;;;;7.28;100.00;101571.78;5091590;28;20097;-70
2022/11/12 18:16:18;;;;;;;18.40;8.98;;;;;;;7.28;100.00;101571.78;5090246;28;20051;-70
2022/11/12 18:19:03;;;;;;;10.90;7.25;;;;;;;7.29;100.00;101572.63;5090425;28;20503;-72
2022/11/12 18:21:47;;;;;;;17.80;8.98;;;;;;;7.33;100.00;101571.44;5090839;28;20110;-71
2022/11/12 18:24:31;;;;;;;12.77;8.35;;;;;;;7.34;100.00;101568.66;5091169;28;20051;-70
2022/11/12 18:27:15;;;;;;;15.23;9.07;;;;;;;7.23;100.00;101573.09;5091192;28;20071;-70
2022/11/12 18:30:00;;;;;;;18.63;10.55;;;;;;;7.29;100.00;101575.28;5094469;28;20066;-71